METAR Data

Data at: 2234 UTC 26 Feb 2020

METAR for:KCON (Concord Muni, NH, US)
Text:KCON 262151Z AUTO 10007KT 10SM OVC050 06/M01 A2996 RMK AO2 SLP149 T00611011
Temperature: 6.1°C ( 43°F)
Dewpoint: -1.1°C ( 30°F) [RH = 60%]
Pressure (altimeter):29.96 inches Hg (1014.6 mb) [Sea level pressure: 1014.9 mb]
Winds:from the E (100 degrees) at 8 MPH (7 knots; 3.6 m/s)
Visibility:10 or more sm (16+ km)
Ceiling:5000 feet AGL
Clouds: overcast cloud deck at 5000 feet AGL
QC Flag:automated observation with no human augmentation